sensor_id;sensor_type;location;lat;lon;timestamp;P1;durP1;ratioP1;P2;durP2;ratioP2
41077;SDS011;26823;42.662;23.352;2023-11-21T00:00:21;19.60;;;10.77;;
41077;SDS011;26823;42.662;23.352;2023-11-21T00:02:46;25.27;;;11.38;;
41077;SDS011;26823;42.662;23.352;2023-11-21T00:05:12;26.73;;;11.50;;
41077;SDS011;26823;42.662;23.352;2023-11-21T00:07:42;21.40;;;11.23;;
41077;SDS011;26823;42.662;23.352;2023-11-21T00:10:08;21.85;;;12.27;;
41077;SDS011;26823;42.662;23.352;2023-11-21T00:12:35;19.08;;;11.90;;
41077;SDS011;26823;42.662;23.352;2023-11-21T00:15:00;20.17;;;11.93;;
41077;SDS011;26823;42.662;23.352;2023-11-21T00:17:26;21.10;;;11.73;;
41077;SDS011;26823;42.662;23.352;2023-11-21T00:19:52;20.85;;;13.07;;
41077;SDS011;26823;42.662;23.352;2023-11-21T00:22:17;20.15;;;12.48;;
41077;SDS011;26823;42.662;23.352;2023-11-21T00:24:43;20.45;;;12.50;;
41077;SDS011;26823;42.662;23.352;2023-11-21T00:27:09;20.45;;;12.73;;
41077;SDS011;26823;42.662;23.352;2023-11-21T00:29:34;23.58;;;13.80;;
41077;SDS011;26823;42.662;23.352;2023-11-21T00:32:00;22.25;;;12.55;;
41077;SDS011;26823;42.662;23.352;2023-11-21T00:34:25;21.15;;;12.27;;
41077;SDS011;26823;42.662;23.352;2023-11-21T00:36:50;23.40;;;12.27;;
41077;SDS011;26823;42.662;23.352;2023-11-21T00:39:16;24.15;;;11.65;;
41077;SDS011;26823;42.662;23.352;2023-11-21T00:41:41;22.33;;;12.65;;
41077;SDS011;26823;42.662;23.352;2023-11-21T00:44:07;24.02;;;11.82;;
41077;SDS011;26823;42.662;23.352;2023-11-21T00:46:32;21.13;;;12.23;;
41077;SDS011;26823;42.662;23.352;2023-11-21T00:48:58;19.60;;;11.85;;
41077;SDS011;26823;42.662;23.352;2023-11-21T00:51:23;25.92;;;13.25;;
41077;SDS011;26823;42.662;23.352;2023-11-21T00:53:55;21.17;;;11.80;;
41077;SDS011;26823;42.662;23.352;2023-11-21T00:56:21;23.50;;;13.07;;
41077;SDS011;26823;42.662;23.352;2023-11-21T00:58:46;23.30;;;13.15;;
41077;SDS011;26823;42.662;23.352;2023-11-21T01:01:15;20.35;;;11.77;;
41077;SDS011;26823;42.662;23.352;2023-11-21T01:03:41;19.65;;;12.07;;
41077;SDS011;26823;42.662;23.352;2023-11-21T01:06:06;19.33;;;11.90;;
41077;SDS011;26823;42.662;23.352;2023-11-21T01:08:33;19.25;;;12.05;;
41077;SDS011;26823;42.662;23.352;2023-11-21T01:11:00;22.88;;;10.98;;
41077;SDS011;26823;42.662;23.352;2023-11-21T01:13:26;17.20;;;10.20;;
41077;SDS011;26823;42.662;23.352;2023-11-21T01:15:52;19.55;;;11.40;;
41077;SDS011;26823;42.662;23.352;2023-11-21T01:18:18;18.73;;;10.80;;
41077;SDS011;26823;42.662;23.352;2023-11-21T01:20:43;19.95;;;11.40;;
41077;SDS011;26823;42.662;23.352;2023-11-21T01:23:10;16.77;;;11.52;;
41077;SDS011;26823;42.662;23.352;2023-11-21T01:25:36;19.35;;;11.35;;
41077;SDS011;26823;42.662;23.352;2023-11-21T01:28:01;16.85;;;10.52;;
41077;SDS011;26823;42.662;23.352;2023-11-21T01:30:27;21.67;;;10.90;;
41077;SDS011;26823;42.662;23.352;2023-11-21T01:32:52;17.30;;;11.52;;
41077;SDS011;26823;42.662;23.352;2023-11-21T01:35:17;18.92;;;11.18;;
41077;SDS011;26823;42.662;23.352;2023-11-21T01:37:43;18.15;;;11.65;;
41077;SDS011;26823;42.662;23.352;2023-11-21T01:40:08;22.08;;;9.95;;
41077;SDS011;26823;42.662;23.352;2023-11-21T01:42:35;17.38;;;10.88;;
41077;SDS011;26823;42.662;23.352;2023-11-21T01:45:00;16.98;;;10.35;;
41077;SDS011;26823;42.662;23.352;2023-11-21T01:47:28;17.20;;;10.50;;
41077;SDS011;26823;42.662;23.352;2023-11-21T01:49:55;21.50;;;10.00;;
41077;SDS011;26823;42.662;23.352;2023-11-21T01:52:20;20.60;;;11.05;;
41077;SDS011;26823;42.662;23.352;2023-11-21T01:54:46;17.20;;;10.68;;
41077;SDS011;26823;42.662;23.352;2023-11-21T01:57:12;21.63;;;11.10;;
41077;SDS011;26823;42.662;23.352;2023-11-21T01:59:38;16.17;;;10.02;;
41077;SDS011;26823;42.662;23.352;2023-11-21T02:02:06;17.85;;;10.63;;
41077;SDS011;26823;42.662;23.352;2023-11-21T02:04:35;19.30;;;10.65;;
41077;SDS011;26823;42.662;23.352;2023-11-21T02:07:01;18.83;;;10.32;;
41077;SDS011;26823;42.662;23.352;2023-11-21T02:09:30;15.75;;;10.07;;
41077;SDS011;26823;42.662;23.352;2023-11-21T02:11:56;17.42;;;10.23;;
41077;SDS011;26823;42.662;23.352;2023-11-21T02:14:23;19.05;;;11.02;;
41077;SDS011;26823;42.662;23.352;2023-11-21T02:16:50;18.08;;;10.95;;
41077;SDS011;26823;42.662;23.352;2023-11-21T02:19:20;17.05;;;10.70;;
41077;SDS011;26823;42.662;23.352;2023-11-21T02:21:54;21.08;;;11.00;;
41077;SDS011;26823;42.662;23.352;2023-11-21T02:24:23;20.15;;;10.60;;
41077;SDS011;26823;42.662;23.352;2023-11-21T02:26:49;21.85;;;11.70;;
41077;SDS011;26823;42.662;23.352;2023-11-21T02:29:20;17.65;;;11.70;;
41077;SDS011;26823;42.662;23.352;2023-11-21T02:31:55;22.85;;;11.73;;
41077;SDS011;26823;42.662;23.352;2023-11-21T02:34:21;17.05;;;10.73;;
41077;SDS011;26823;42.662;23.352;2023-11-21T02:36:48;19.10;;;11.40;;
41077;SDS011;26823;42.662;23.352;2023-11-21T02:39:17;16.98;;;11.27;;
41077;SDS011;26823;42.662;23.352;2023-11-21T02:41:43;20.13;;;11.90;;
41077;SDS011;26823;42.662;23.352;2023-11-21T02:44:09;20.45;;;12.95;;
41077;SDS011;26823;42.662;23.352;2023-11-21T02:46:35;19.70;;;12.57;;
41077;SDS011;26823;42.662;23.352;2023-11-21T02:49:01;21.90;;;11.82;;
41077;SDS011;26823;42.662;23.352;2023-11-21T02:51:31;24.63;;;12.00;;
41077;SDS011;26823;42.662;23.352;2023-11-21T02:53:57;20.05;;;13.02;;
41077;SDS011;26823;42.662;23.352;2023-11-21T02:56:25;26.67;;;12.50;;
41077;SDS011;26823;42.662;23.352;2023-11-21T02:58:55;23.42;;;13.02;;
41077;SDS011;26823;42.662;23.352;2023-11-21T03:01:20;29.45;;;18.00;;
41077;SDS011;26823;42.662;23.352;2023-11-21T03:03:46;29.20;;;18.75;;
41077;SDS011;26823;42.662;23.352;2023-11-21T03:06:16;36.80;;;24.85;;
41077;SDS011;26823;42.662;23.352;2023-11-21T03:08:42;47.45;;;33.35;;
41077;SDS011;26823;42.662;23.352;2023-11-21T03:11:07;32.17;;;19.52;;
41077;SDS011;26823;42.662;23.352;2023-11-21T03:13:33;29.70;;;16.83;;
41077;SDS011;26823;42.662;23.352;2023-11-21T03:15:58;25.17;;;16.52;;
41077;SDS011;26823;42.662;23.352;2023-11-21T03:18:24;24.05;;;15.50;;
41077;SDS011;26823;42.662;23.352;2023-11-21T03:20:52;74.68;;;47.25;;
41077;SDS011;26823;42.662;23.352;2023-11-21T03:23:18;66.97;;;45.10;;
41077;SDS011;26823;42.662;23.352;2023-11-21T03:25:43;44.70;;;27.17;;
41077;SDS011;26823;42.662;23.352;2023-11-21T03:28:09;40.28;;;27.65;;
41077;SDS011;26823;42.662;23.352;2023-11-21T03:30:34;52.88;;;35.33;;
41077;SDS011;26823;42.662;23.352;2023-11-21T03:33:00;68.45;;;44.05;;
41077;SDS011;26823;42.662;23.352;2023-11-21T03:35:25;64.88;;;41.92;;
41077;SDS011;26823;42.662;23.352;2023-11-21T03:37:51;53.17;;;36.60;;
41077;SDS011;26823;42.662;23.352;2023-11-21T03:40:16;55.67;;;33.65;;
41077;SDS011;26823;42.662;23.352;2023-11-21T03:42:42;46.47;;;32.17;;
41077;SDS011;26823;42.662;23.352;2023-11-21T03:45:07;42.40;;;28.95;;
41077;SDS011;26823;42.662;23.352;2023-11-21T03:47:33;39.78;;;27.20;;
41077;SDS011;26823;42.662;23.352;2023-11-21T03:49:59;40.97;;;24.15;;
41077;SDS011;26823;42.662;23.352;2023-11-21T03:52:24;39.83;;;25.30;;
41077;SDS011;26823;42.662;23.352;2023-11-21T03:54:50;38.22;;;24.02;;
41077;SDS011;26823;42.662;23.352;2023-11-21T03:57:15;35.22;;;21.90;;
41077;SDS011;26823;42.662;23.352;2023-11-21T03:59:42;36.00;;;20.95;;
41077;SDS011;26823;42.662;23.352;2023-11-21T04:02:07;57.85;;;37.63;;
41077;SDS011;26823;42.662;23.352;2023-11-21T04:04:33;56.53;;;38.88;;
41077;SDS011;26823;42.662;23.352;2023-11-21T04:06:59;45.78;;;28.13;;
41077;SDS011;26823;42.662;23.352;2023-11-21T04:09:24;31.27;;;20.95;;
41077;SDS011;26823;42.662;23.352;2023-11-21T04:11:53;41.28;;;27.20;;
41077;SDS011;26823;42.662;23.352;2023-11-21T04:14:20;37.75;;;23.85;;
41077;SDS011;26823;42.662;23.352;2023-11-21T04:16:45;26.42;;;17.17;;
41077;SDS011;26823;42.662;23.352;2023-11-21T04:19:11;32.33;;;17.27;;
41077;SDS011;26823;42.662;23.352;2023-11-21T04:21:36;36.17;;;20.52;;
41077;SDS011;26823;42.662;23.352;2023-11-21T04:24:02;21.58;;;11.77;;
41077;SDS011;26823;42.662;23.352;2023-11-21T04:26:28;19.10;;;10.82;;
41077;SDS011;26823;42.662;23.352;2023-11-21T04:28:53;17.48;;;11.18;;
41077;SDS011;26823;42.662;23.352;2023-11-21T04:31:18;28.15;;;18.48;;
41077;SDS011;26823;42.662;23.352;2023-11-21T04:33:44;20.95;;;12.85;;
41077;SDS011;26823;42.662;23.352;2023-11-21T04:36:10;17.50;;;10.15;;
41077;SDS011;26823;42.662;23.352;2023-11-21T04:38:35;18.77;;;11.73;;
41077;SDS011;26823;42.662;23.352;2023-11-21T04:41:01;26.63;;;16.48;;
41077;SDS011;26823;42.662;23.352;2023-11-21T04:43:26;26.10;;;15.65;;
41077;SDS011;26823;42.662;23.352;2023-11-21T04:45:52;22.60;;;15.48;;
41077;SDS011;26823;42.662;23.352;2023-11-21T04:48:17;26.48;;;14.65;;
41077;SDS011;26823;42.662;23.352;2023-11-21T04:50:42;21.75;;;14.00;;
41077;SDS011;26823;42.662;23.352;2023-11-21T04:53:08;22.55;;;12.18;;
41077;SDS011;26823;42.662;23.352;2023-11-21T04:55:33;20.08;;;12.55;;
41077;SDS011;26823;42.662;23.352;2023-11-21T04:57:58;15.35;;;10.40;;
41077;SDS011;26823;42.662;23.352;2023-11-21T05:00:24;15.65;;;9.45;;
41077;SDS011;26823;42.662;23.352;2023-11-21T05:02:49;16.55;;;11.95;;
41077;SDS011;26823;42.662;23.352;2023-11-21T05:05:15;17.45;;;12.88;;
41077;SDS011;26823;42.662;23.352;2023-11-21T05:07:40;23.60;;;12.63;;
41077;SDS011;26823;42.662;23.352;2023-11-21T05:10:06;17.88;;;11.90;;
41077;SDS011;26823;42.662;23.352;2023-11-21T05:12:40;20.20;;;12.77;;
41077;SDS011;26823;42.662;23.352;2023-11-21T05:15:06;22.55;;;14.95;;
41077;SDS011;26823;42.662;23.352;2023-11-21T05:17:36;25.13;;;13.63;;
41077;SDS011;26823;42.662;23.352;2023-11-21T05:20:03;19.98;;;14.05;;
41077;SDS011;26823;42.662;23.352;2023-11-21T05:22:29;20.92;;;13.68;;
41077;SDS011;26823;42.662;23.352;2023-11-21T05:24:55;23.15;;;12.68;;
41077;SDS011;26823;42.662;23.352;2023-11-21T05:27:20;20.73;;;13.48;;
41077;SDS011;26823;42.662;23.352;2023-11-21T05:29:46;27.25;;;15.13;;
41077;SDS011;26823;42.662;23.352;2023-11-21T05:32:11;25.75;;;13.73;;
41077;SDS011;26823;42.662;23.352;2023-11-21T05:34:36;26.65;;;15.90;;
41077;SDS011;26823;42.662;23.352;2023-11-21T05:37:02;25.02;;;14.80;;
41077;SDS011;26823;42.662;23.352;2023-11-21T05:39:27;28.33;;;14.60;;
41077;SDS011;26823;42.662;23.352;2023-11-21T05:41:53;21.83;;;13.68;;
41077;SDS011;26823;42.662;23.352;2023-11-21T05:44:18;25.02;;;15.95;;
41077;SDS011;26823;42.662;23.352;2023-11-21T05:46:44;23.52;;;14.35;;
41077;SDS011;26823;42.662;23.352;2023-11-21T05:49:09;23.70;;;14.60;;
41077;SDS011;26823;42.662;23.352;2023-11-21T05:51:36;28.48;;;14.95;;
41077;SDS011;26823;42.662;23.352;2023-11-21T05:54:03;24.45;;;15.20;;
41077;SDS011;26823;42.662;23.352;2023-11-21T05:56:28;32.38;;;17.27;;
41077;SDS011;26823;42.662;23.352;2023-11-21T05:58:54;26.50;;;15.45;;
41077;SDS011;26823;42.662;23.352;2023-11-21T06:01:19;25.23;;;15.02;;
41077;SDS011;26823;42.662;23.352;2023-11-21T06:03:45;22.02;;;14.60;;
41077;SDS011;26823;42.662;23.352;2023-11-21T06:06:10;32.63;;;16.90;;
41077;SDS011;26823;42.662;23.352;2023-11-21T06:08:36;27.92;;;16.48;;
41077;SDS011;26823;42.662;23.352;2023-11-21T06:11:01;25.58;;;15.73;;
41077;SDS011;26823;42.662;23.352;2023-11-21T06:13:27;25.67;;;14.77;;
41077;SDS011;26823;42.662;23.352;2023-11-21T06:15:52;26.33;;;14.68;;
41077;SDS011;26823;42.662;23.352;2023-11-21T06:18:18;25.52;;;16.25;;
41077;SDS011;26823;42.662;23.352;2023-11-21T06:20:45;25.15;;;15.02;;
41077;SDS011;26823;42.662;23.352;2023-11-21T06:23:11;27.92;;;15.50;;
41077;SDS011;26823;42.662;23.352;2023-11-21T06:25:36;21.83;;;14.43;;
41077;SDS011;26823;42.662;23.352;2023-11-21T06:28:01;24.02;;;13.32;;
41077;SDS011;26823;42.662;23.352;2023-11-21T06:30:27;28.15;;;13.57;;
41077;SDS011;26823;42.662;23.352;2023-11-21T06:32:54;25.67;;;14.40;;
41077;SDS011;26823;42.662;23.352;2023-11-21T06:35:20;26.92;;;16.08;;
41077;SDS011;26823;42.662;23.352;2023-11-21T06:37:45;26.27;;;15.77;;
41077;SDS011;26823;42.662;23.352;2023-11-21T06:40:14;25.23;;;15.85;;
41077;SDS011;26823;42.662;23.352;2023-11-21T06:42:40;30.10;;;17.33;;
41077;SDS011;26823;42.662;23.352;2023-11-21T06:45:06;26.02;;;16.23;;
41077;SDS011;26823;42.662;23.352;2023-11-21T06:47:32;25.75;;;15.82;;
41077;SDS011;26823;42.662;23.352;2023-11-21T06:49:58;24.58;;;14.90;;
41077;SDS011;26823;42.662;23.352;2023-11-21T06:52:24;29.05;;;15.43;;
41077;SDS011;26823;42.662;23.352;2023-11-21T06:54:49;27.83;;;15.32;;
41077;SDS011;26823;42.662;23.352;2023-11-21T06:57:15;28.58;;;15.75;;
41077;SDS011;26823;42.662;23.352;2023-11-21T06:59:40;29.50;;;17.23;;
41077;SDS011;26823;42.662;23.352;2023-11-21T07:02:06;29.20;;;16.33;;
41077;SDS011;26823;42.662;23.352;2023-11-21T07:04:32;23.88;;;15.43;;
41077;SDS011;26823;42.662;23.352;2023-11-21T07:06:58;29.05;;;16.73;;
41077;SDS011;26823;42.662;23.352;2023-11-21T07:09:24;26.48;;;16.63;;
41077;SDS011;26823;42.662;23.352;2023-11-21T07:11:51;27.60;;;16.95;;
41077;SDS011;26823;42.662;23.352;2023-11-21T07:14:17;27.13;;;15.38;;
41077;SDS011;26823;42.662;23.352;2023-11-21T07:16:44;28.15;;;16.35;;
41077;SDS011;26823;42.662;23.352;2023-11-21T07:19:10;25.33;;;14.50;;
41077;SDS011;26823;42.662;23.352;2023-11-21T07:21:37;25.10;;;15.32;;
41077;SDS011;26823;42.662;23.352;2023-11-21T07:24:07;25.33;;;15.52;;
41077;SDS011;26823;42.662;23.352;2023-11-21T07:26:33;21.30;;;12.15;;
41077;SDS011;26823;42.662;23.352;2023-11-21T07:29:00;18.58;;;11.95;;
41077;SDS011;26823;42.662;23.352;2023-11-21T07:31:28;21.63;;;11.70;;
41077;SDS011;26823;42.662;23.352;2023-11-21T07:33:54;20.10;;;11.35;;
41077;SDS011;26823;42.662;23.352;2023-11-21T07:36:22;21.67;;;11.48;;
41077;SDS011;26823;42.662;23.352;2023-11-21T07:38:48;18.73;;;11.68;;
41077;SDS011;26823;42.662;23.352;2023-11-21T07:41:14;19.67;;;10.77;;
41077;SDS011;26823;42.662;23.352;2023-11-21T07:43:40;19.67;;;10.43;;
41077;SDS011;26823;42.662;23.352;2023-11-21T07:46:06;22.73;;;10.98;;
41077;SDS011;26823;42.662;23.352;2023-11-21T07:48:33;20.95;;;10.82;;
41077;SDS011;26823;42.662;23.352;2023-11-21T07:50:59;20.40;;;10.32;;
41077;SDS011;26823;42.662;23.352;2023-11-21T07:53:26;18.95;;;10.18;;
41077;SDS011;26823;42.662;23.352;2023-11-21T07:55:53;22.42;;;12.25;;
41077;SDS011;26823;42.662;23.352;2023-11-21T07:58:19;22.10;;;11.88;;
41077;SDS011;26823;42.662;23.352;2023-11-21T08:00:45;21.95;;;12.15;;
41077;SDS011;26823;42.662;23.352;2023-11-21T08:03:10;18.08;;;10.43;;
41077;SDS011;26823;42.662;23.352;2023-11-21T08:05:36;16.77;;;10.30;;
41077;SDS011;26823;42.662;23.352;2023-11-21T08:08:02;15.75;;;10.10;;
41077;SDS011;26823;42.662;23.352;2023-11-21T08:10:27;18.33;;;11.30;;
41077;SDS011;26823;42.662;23.352;2023-11-21T08:12:52;26.23;;;11.60;;
41077;SDS011;26823;42.662;23.352;2023-11-21T08:15:18;24.73;;;11.35;;
41077;SDS011;26823;42.662;23.352;2023-11-21T08:17:44;19.55;;;10.93;;
41077;SDS011;26823;42.662;23.352;2023-11-21T08:20:11;19.40;;;11.32;;
41077;SDS011;26823;42.662;23.352;2023-11-21T08:22:37;19.83;;;12.23;;
41077;SDS011;26823;42.662;23.352;2023-11-21T08:25:02;16.65;;;11.95;;
41077;SDS011;26823;42.662;23.352;2023-11-21T08:27:29;23.67;;;10.50;;
41077;SDS011;26823;42.662;23.352;2023-11-21T08:29:55;18.05;;;10.75;;
41077;SDS011;26823;42.662;23.352;2023-11-21T08:32:21;16.55;;;10.05;;
41077;SDS011;26823;42.662;23.352;2023-11-21T08:34:47;16.77;;;11.20;;
41077;SDS011;26823;42.662;23.352;2023-11-21T08:37:15;18.80;;;11.40;;
41077;SDS011;26823;42.662;23.352;2023-11-21T08:39:41;16.35;;;11.55;;
41077;SDS011;26823;42.662;23.352;2023-11-21T08:42:07;20.60;;;11.45;;
41077;SDS011;26823;42.662;23.352;2023-11-21T08:44:33;18.15;;;11.05;;
41077;SDS011;26823;42.662;23.352;2023-11-21T08:46:58;20.40;;;12.57;;
41077;SDS011;26823;42.662;23.352;2023-11-21T08:49:24;17.50;;;11.98;;
41077;SDS011;26823;42.662;23.352;2023-11-21T08:51:51;16.70;;;10.82;;
41077;SDS011;26823;42.662;23.352;2023-11-21T08:54:16;29.20;;;12.32;;
41077;SDS011;26823;42.662;23.352;2023-11-21T08:56:43;18.77;;;12.57;;
41077;SDS011;26823;42.662;23.352;2023-11-21T08:59:08;20.13;;;12.30;;
41077;SDS011;26823;42.662;23.352;2023-11-21T09:01:34;17.08;;;11.15;;
41077;SDS011;26823;42.662;23.352;2023-11-21T09:03:59;16.95;;;10.95;;
41077;SDS011;26823;42.662;23.352;2023-11-21T09:06:25;17.27;;;11.07;;
41077;SDS011;26823;42.662;23.352;2023-11-21T09:08:50;19.58;;;11.40;;
41077;SDS011;26823;42.662;23.352;2023-11-21T09:11:16;29.95;;;17.92;;
41077;SDS011;26823;42.662;23.352;2023-11-21T09:13:42;36.65;;;22.85;;
41077;SDS011;26823;42.662;23.352;2023-11-21T09:16:07;40.80;;;24.40;;
41077;SDS011;26823;42.662;23.352;2023-11-21T09:18:33;33.50;;;24.13;;
41077;SDS011;26823;42.662;23.352;2023-11-21T09:20:59;40.33;;;23.13;;
41077;SDS011;26823;42.662;23.352;2023-11-21T09:23:24;38.30;;;23.92;;
41077;SDS011;26823;42.662;23.352;2023-11-21T09:25:50;41.85;;;24.13;;
41077;SDS011;26823;42.662;23.352;2023-11-21T09:28:17;39.28;;;23.63;;
41077;SDS011;26823;42.662;23.352;2023-11-21T09:30:43;37.15;;;20.70;;
41077;SDS011;26823;42.662;23.352;2023-11-21T09:33:09;36.92;;;21.33;;
41077;SDS011;26823;42.662;23.352;2023-11-21T09:35:37;35.80;;;21.15;;
41077;SDS011;26823;42.662;23.352;2023-11-21T09:38:03;27.05;;;17.80;;
41077;SDS011;26823;42.662;23.352;2023-11-21T09:40:35;36.50;;;19.02;;
41077;SDS011;26823;42.662;23.352;2023-11-21T09:43:02;31.98;;;17.80;;
41077;SDS011;26823;42.662;23.352;2023-11-21T09:45:34;29.33;;;18.48;;
41077;SDS011;26823;42.662;23.352;2023-11-21T09:48:01;29.80;;;18.85;;
41077;SDS011;26823;42.662;23.352;2023-11-21T09:50:27;28.15;;;17.92;;
41077;SDS011;26823;42.662;23.352;2023-11-21T09:53:26;34.63;;;18.52;;
41077;SDS011;26823;42.662;23.352;2023-11-21T09:55:46;29.77;;;17.42;;
41077;SDS011;26823;42.662;23.352;2023-11-21T09:58:13;30.27;;;16.65;;
41077;SDS011;26823;42.662;23.352;2023-11-21T10:00:43;26.75;;;16.38;;
41077;SDS011;26823;42.662;23.352;2023-11-21T10:03:10;24.38;;;15.85;;
41077;SDS011;26823;42.662;23.352;2023-11-21T10:05:36;25.50;;;15.40;;
41077;SDS011;26823;42.662;23.352;2023-11-21T10:08:09;31.45;;;16.50;;
41077;SDS011;26823;42.662;23.352;2023-11-21T10:10:45;25.42;;;16.40;;
41077;SDS011;26823;42.662;23.352;2023-11-21T10:13:14;24.90;;;16.13;;
41077;SDS011;26823;42.662;23.352;2023-11-21T10:15:42;35.60;;;18.58;;
41077;SDS011;26823;42.662;23.352;2023-11-21T10:18:13;32.60;;;18.02;;
41077;SDS011;26823;42.662;23.352;2023-11-21T10:20:40;29.00;;;16.55;;
41077;SDS011;26823;42.662;23.352;2023-11-21T10:23:06;26.95;;;16.75;;
41077;SDS011;26823;42.662;23.352;2023-11-21T10:25:43;25.35;;;15.75;;
41077;SDS011;26823;42.662;23.352;2023-11-21T10:28:09;29.02;;;15.65;;
41077;SDS011;26823;42.662;23.352;2023-11-21T10:30:35;28.60;;;16.52;;
41077;SDS011;26823;42.662;23.352;2023-11-21T10:33:03;22.95;;;14.30;;
41077;SDS011;26823;42.662;23.352;2023-11-21T10:38:07;22.90;;;14.48;;
41077;SDS011;26823;42.662;23.352;2023-11-21T10:40:37;24.48;;;13.27;;
41077;SDS011;26823;42.662;23.352;2023-11-21T10:43:07;26.13;;;13.68;;
41077;SDS011;26823;42.662;23.352;2023-11-21T10:45:38;26.95;;;14.55;;
41077;SDS011;26823;42.662;23.352;2023-11-21T10:48:06;20.00;;;14.25;;
41077;SDS011;26823;42.662;23.352;2023-11-21T10:50:38;15.90;;;10.93;;
41077;SDS011;26823;42.662;23.352;2023-11-21T10:53:04;22.02;;;12.15;;
41077;SDS011;26823;42.662;23.352;2023-11-21T10:55:31;16.23;;;12.00;;
41077;SDS011;26823;42.662;23.352;2023-11-21T10:57:58;17.67;;;11.52;;
41077;SDS011;26823;42.662;23.352;2023-11-21T11:00:26;19.88;;;12.50;;
41077;SDS011;26823;42.662;23.352;2023-11-21T11:02:53;24.25;;;14.07;;
41077;SDS011;26823;42.662;23.352;2023-11-21T11:05:23;20.38;;;14.00;;
41077;SDS011;26823;42.662;23.352;2023-11-21T11:07:51;21.63;;;14.38;;
41077;SDS011;26823;42.662;23.352;2023-11-21T11:10:24;20.10;;;12.20;;
41077;SDS011;26823;42.662;23.352;2023-11-21T11:12:53;21.73;;;12.43;;
41077;SDS011;26823;42.662;23.352;2023-11-21T11:15:20;22.25;;;11.80;;
41077;SDS011;26823;42.662;23.352;2023-11-21T11:17:46;27.98;;;12.65;;
41077;SDS011;26823;42.662;23.352;2023-11-21T11:20:14;21.77;;;12.68;;
41077;SDS011;26823;42.662;23.352;2023-11-21T11:33:31;20.85;;;11.48;;
41077;SDS011;26823;42.662;23.352;2023-11-21T11:38:59;15.80;;;11.63;;
41077;SDS011;26823;42.662;23.352;2023-11-21T11:41:27;16.27;;;11.63;;
41077;SDS011;26823;42.662;23.352;2023-11-21T11:43:57;21.15;;;11.07;;
41077;SDS011;26823;42.662;23.352;2023-11-21T11:46:42;20.05;;;11.45;;
41077;SDS011;26823;42.662;23.352;2023-11-21T11:49:22;24.02;;;12.25;;
41077;SDS011;26823;42.662;23.352;2023-11-21T11:52:31;20.40;;;11.63;;
41077;SDS011;26823;42.662;23.352;2023-11-21T11:54:54;19.98;;;11.02;;
41077;SDS011;26823;42.662;23.352;2023-11-21T11:57:23;14.73;;;10.32;;
41077;SDS011;26823;42.662;23.352;2023-11-21T12:00:23;18.00;;;11.35;;
41077;SDS011;26823;42.662;23.352;2023-11-21T12:03:02;16.00;;;12.48;;
41077;SDS011;26823;42.662;23.352;2023-11-21T12:05:29;18.58;;;11.35;;
41077;SDS011;26823;42.662;23.352;2023-11-21T12:07:59;22.40;;;12.52;;
41077;SDS011;26823;42.662;23.352;2023-11-21T12:10:27;24.83;;;13.45;;
41077;SDS011;26823;42.662;23.352;2023-11-21T12:12:57;23.65;;;14.32;;
41077;SDS011;26823;42.662;23.352;2023-11-21T12:15:23;23.13;;;14.57;;
41077;SDS011;26823;42.662;23.352;2023-11-21T12:17:50;22.58;;;14.35;;
41077;SDS011;26823;42.662;23.352;2023-11-21T12:20:19;21.85;;;13.63;;
41077;SDS011;26823;42.662;23.352;2023-11-21T12:25:13;25.73;;;15.95;;
41077;SDS011;26823;42.662;23.352;2023-11-21T12:27:43;30.38;;;17.83;;
41077;SDS011;26823;42.662;23.352;2023-11-21T12:30:15;25.35;;;17.02;;
41077;SDS011;26823;42.662;23.352;2023-11-21T12:32:43;24.92;;;17.88;;
41077;SDS011;26823;42.662;23.352;2023-11-21T12:35:11;30.55;;;19.85;;
41077;SDS011;26823;42.662;23.352;2023-11-21T12:37:40;31.50;;;19.00;;
41077;SDS011;26823;42.662;23.352;2023-11-21T12:40:09;31.75;;;18.85;;
41077;SDS011;26823;42.662;23.352;2023-11-21T12:42:39;34.63;;;19.30;;
41077;SDS011;26823;42.662;23.352;2023-11-21T12:47:42;33.25;;;20.02;;
41077;SDS011;26823;42.662;23.352;2023-11-21T12:50:20;33.95;;;21.10;;
41077;SDS011;26823;42.662;23.352;2023-11-21T12:52:49;38.35;;;20.88;;
41077;SDS011;26823;42.662;23.352;2023-11-21T12:55:16;31.75;;;20.13;;
41077;SDS011;26823;42.662;23.352;2023-11-21T12:57:47;38.50;;;22.52;;
41077;SDS011;26823;42.662;23.352;2023-11-21T13:00:15;41.22;;;21.92;;
41077;SDS011;26823;42.662;23.352;2023-11-21T13:02:52;34.05;;;21.80;;
41077;SDS011;26823;42.662;23.352;2023-11-21T13:05:27;35.08;;;22.88;;
41077;SDS011;26823;42.662;23.352;2023-11-21T13:08:06;39.70;;;23.83;;
41077;SDS011;26823;42.662;23.352;2023-11-21T13:10:40;36.35;;;22.25;;
41077;SDS011;26823;42.662;23.352;2023-11-21T13:13:09;37.60;;;22.80;;
41077;SDS011;26823;42.662;23.352;2023-11-21T13:15:46;35.97;;;23.65;;
41077;SDS011;26823;42.662;23.352;2023-11-21T13:18:25;39.40;;;22.80;;
41077;SDS011;26823;42.662;23.352;2023-11-21T13:20:52;34.55;;;23.00;;
41077;SDS011;26823;42.662;23.352;2023-11-21T13:23:22;35.55;;;23.15;;
41077;SDS011;26823;42.662;23.352;2023-11-21T13:25:48;42.63;;;23.48;;
41077;SDS011;26823;42.662;23.352;2023-11-21T13:28:15;35.53;;;22.55;;
41077;SDS011;26823;42.662;23.352;2023-11-21T13:30:43;39.03;;;22.95;;
41077;SDS011;26823;42.662;23.352;2023-11-21T13:33:09;43.20;;;22.80;;
41077;SDS011;26823;42.662;23.352;2023-11-21T13:35:38;39.53;;;23.30;;
41077;SDS011;26823;42.662;23.352;2023-11-21T13:38:08;37.85;;;23.55;;
41077;SDS011;26823;42.662;23.352;2023-11-21T13:40:36;35.53;;;22.67;;
41077;SDS011;26823;42.662;23.352;2023-11-21T13:43:08;37.70;;;22.48;;
41077;SDS011;26823;42.662;23.352;2023-11-21T13:45:38;39.55;;;22.98;;
41077;SDS011;26823;42.662;23.352;2023-11-21T13:48:05;36.67;;;23.40;;
41077;SDS011;26823;42.662;23.352;2023-11-21T13:50:35;38.17;;;22.55;;
41077;SDS011;26823;42.662;23.352;2023-11-21T13:53:01;39.20;;;24.25;;
41077;SDS011;26823;42.662;23.352;2023-11-21T13:55:29;40.42;;;23.80;;
41077;SDS011;26823;42.662;23.352;2023-11-21T13:57:54;32.78;;;22.15;;
41077;SDS011;26823;42.662;23.352;2023-11-21T14:00:19;50.60;;;23.10;;
41077;SDS011;26823;42.662;23.352;2023-11-21T14:03:11;41.15;;;24.48;;
41077;SDS011;26823;42.662;23.352;2023-11-21T14:05:47;37.92;;;23.33;;
41077;SDS011;26823;42.662;23.352;2023-11-21T14:08:19;44.53;;;23.75;;
41077;SDS011;26823;42.662;23.352;2023-11-21T14:10:46;36.25;;;23.55;;
41077;SDS011;26823;42.662;23.352;2023-11-21T14:13:23;39.65;;;23.45;;
41077;SDS011;26823;42.662;23.352;2023-11-21T14:15:49;36.53;;;22.73;;
41077;SDS011;26823;42.662;23.352;2023-11-21T14:18:17;35.15;;;22.25;;
41077;SDS011;26823;42.662;23.352;2023-11-21T14:20:51;39.30;;;23.23;;
41077;SDS011;26823;42.662;23.352;2023-11-21T14:23:16;36.55;;;23.75;;
41077;SDS011;26823;42.662;23.352;2023-11-21T14:25:43;41.53;;;23.05;;
41077;SDS011;26823;42.662;23.352;2023-11-21T14:28:08;34.05;;;21.90;;
41077;SDS011;26823;42.662;23.352;2023-11-21T14:30:36;37.92;;;22.67;;